EmailTwitter


Surface observations / United Kingdom / EGLL (03772)

Regions: Quebec | Canada | USA | Europe | France | UK | Elsewhere
Station
Display
Info & Location for EGLL (03772) | Help decoding METAR

Weather Conditions observed on 2018/02/23 at 17:20 UTC at LONDON/HEATHROW, UK (EGLL)

Sky conditions: partly cloudy.

Temperature: 3.0 Celsius.

Dewpoint: -3.0 Celsius.

Relative Humidity: 65%

Windchill Factor: -1.

Winds: East at 17 km/h or 9 knots.

Mean Sea level Pressure: 102.00 kilopascals.

Horizontal visibility: 6.21 statute miles or 9.94 kilometers.

Height of the Ceiling: 884 metres ( 2900 feet ).

Coded METAR:

EGLL 231720Z AUTO 08009KT 9999 BKN029 03/M03 Q1020 NOSIG=